Aérodrome :
LOGIN :

S'inscrire | Disclaimer

   EN    FR    IT 

 










Légende :    VFR   VFR Marginal   IFR   IFR Intensif   IFR Très Intensif
Visi : 
Plafond : 
>= 8 km
>= 3000ft
5 à 8 km
1000 à 3000 ft
1500m à 5 km
500 à 1000 ft
800 à 1500m
200 à 500 ft
< 800m
< 200 ft
Symboles :   Orages  Brouillard  Fortes neiges  Fortes précipitations  Vent > 20 kt
SIGMETs :   Divers  Orages  Givrage  Turbulence  Onde Orograph.  Cendres Volcan.






- Altitude de l'aérodrome : 15 ft
- Code IATA : BHD


EGAC - George Best Belfast City

DERNIER METAR :
  • 261720Z AUTO 20007KT 9999 SCT026/// BKN031/// BKN040/// 04/02 Q1003

METARs EXPIRÉS :
  • 261650Z AUTO 25010KT 9999 -RA FEW027/// SCT033/// BKN043/// 05/01 Q1003
  • 261620Z AUTO 25009KT 220V280 9999 FEW029/// 05/00 Q1003
  • 261550Z AUTO 24009KT 9999 NCD 05/01 Q1003
  • 261520Z AUTO 24014KT 9999 NCD 05/01 Q1004
  • 261450Z AUTO 25016G26KT 9999 NCD 05/01 Q1004
  • 261420Z AUTO 24014KT 9999 FEW026/// 06/01 Q1004

TAF AMD TAF EGAC
Valide du 26 à 15h jusqu'au 26 à 22h UTC


261511Z 2615/2622 25013KT 9999 FEW014 SCT040
TEMPO 2615/2619 25016G26KT
PROB30
TEMPO 2616/2622 4000 SHRASN SHGS SCT008 BKN014CB
ATIS : +44 02890 935 124



MET'MAP, la Météo Aéronautique d'un coup d'oeil ! - Copyright ORBIFLY Décembre 2007 - Disclaimer

ORBIFLY MET'MAP TEAM :

Programmation & Développement : Alexandra Zaïnal
Sur une idée originale de : Baudouin d'Aumeries
Assistance à la programmation : Marc-Olivier Méhu
Soutien technique & logistique : Manuel Goepfert

Contact : metmap@orbifly.com




SOURCES & CREDITS :

   NOAA